CPD8 weather

CLOSED Hawkesbury (Windover Field) Airport
Hawkesbury, Ontario, Canada

Public forecast

Using degrees Celsius for public forecast. Weather courtesy of forecast.io.

METAR (pilot weather report)

Report is more than 2 hours old.

Closest report is Ottawa / Gatineau Airport, 31.8 nm (58.9 km) W. Retrieved 2019/05/26 01:00 UTC (4 hours ago):

CYND 260100Z 07003KT 10SM SCT008 OVC010 15/15 A2980 RMK SF4SC4 LAST STFD OBS/NEXT 261100 UTC SLP093 DENSITY ALT 500FT

TAF (pilot weather forecast)

Forecast is more than 6 hours old.

Closest forecast is Ottawa / Gatineau Airport, 31.8 nm (58.9 km) W. Retrieved 2019/05/25 18:00 UTC (11 hours ago):

TAF CYND 251738Z 2518/2601 18010KT P6SM -SHRA SCT020 BKN040 TEMPO 2518/2520 5SM -SHRA BR BKN020 OVC040 FM252000 17012G22KT 6SM -SHRA BR SCT015 OVC030 TEMPO 2520/2601 4SM SHRA BR VCTS SCT007 BKN015 OVC030CB RMK NXT FCST WILL BE ISSUED AT 261245Z